Time;durP1;ratioP1;P1;durP2;ratioP2;P2;SDS_P1;SDS_P2;PMS_P1;PMS_P2;Temp;Humidity;BMP_temperature;BMP_pressure;BME280_temperature;BME280_humidity;BME280_pressure;Samples;Min_cycle;Max_cycle;Signal;HPM_P1;HPM_P2
2023/10/13 00:01:11;;;;;;;8.30;2.90;;;;;;;14.24;61.53;100605.83;124964;1101;101990;-80
2023/10/13 00:03:42;;;;;;;8.83;2.72;;;;;;;14.24;61.46;100612.86;124963;1102;104171;-80
2023/10/13 00:06:11;;;;;;;13.87;2.77;;;;;;;14.22;61.20;100610.19;124868;1102;101878;-80
2023/10/13 00:08:39;;;;;;;9.03;3.00;;;;;;;14.22;61.86;100604.03;124939;1102;101858;-80
2023/10/13 00:11:13;;;;;;;8.60;3.07;;;;;;;14.20;61.12;100609.27;124903;1102;101814;-81
2023/10/13 00:13:43;;;;;;;7.40;2.62;;;;;;;14.19;61.40;100610.12;124948;1102;104293;-80
2023/10/13 00:16:17;;;;;;;12.17;3.27;;;;;;;14.17;61.51;100609.20;124950;1102;102233;-80
2023/10/13 00:18:46;;;;;;;10.93;3.07;;;;;;;14.14;61.74;100602.09;124925;1101;104191;-80
2023/10/13 00:21:19;;;;;;;11.70;3.10;;;;;;;14.12;62.06;100605.58;124902;1102;101922;-79
2023/10/13 00:23:54;;;;;;;6.58;2.92;;;;;;;14.09;62.09;100605.50;125050;1102;102307;-79
2023/10/13 00:26:27;;;;;;;9.23;2.90;;;;;;;14.08;61.81;100601.07;124942;1102;104249;-79
2023/10/13 00:29:08;;;;;;;7.15;2.62;;;;;;;14.04;62.31;100610.67;124966;1102;104172;-80
2023/10/13 00:31:42;;;;;;;9.50;2.93;;;;;;;13.96;61.40;100618.41;124892;1101;104169;-80
2023/10/13 00:34:24;;;;;;;6.03;2.50;;;;;;;13.95;61.85;100611.34;124944;1101;104181;-80
2023/10/13 00:39:40;;;;;;;8.60;2.73;;;;;;;13.94;61.94;100611.30;124971;1102;118539;-79
2023/10/13 00:42:17;;;;;;;6.23;2.63;;;;;;;13.94;62.33;100613.94;124877;1102;104397;-80
2023/10/13 00:44:48;;;;;;;7.67;2.50;;;;;;;13.93;62.75;100605.14;124940;1101;102234;-80
2023/10/13 00:47:37;;;;;;;8.07;3.00;;;;;;;13.91;62.31;100603.31;124906;1101;102089;-80
2023/10/13 00:50:11;;;;;;;9.20;3.10;;;;;;;13.89;62.57;100608.55;124906;1102;101919;-79
2023/10/13 00:52:41;;;;;;;9.57;3.50;;;;;;;13.89;62.39;100613.83;124890;1102;101990;-80
2023/10/13 00:55:13;;;;;;;9.33;3.20;;;;;;;13.87;62.97;100612.91;124920;1102;104089;-80
2023/10/13 00:57:43;;;;;;;8.40;3.00;;;;;;;13.87;62.52;100618.19;125033;1102;104778;-79
2023/10/13 01:00:18;;;;;;;5.73;3.10;;;;;;;13.89;63.00;100620.86;124955;1102;104275;-80
2023/10/13 01:02:55;;;;;;;6.53;3.33;;;;;;;13.87;62.46;100626.09;124969;1102;101813;-79
2023/10/13 01:05:25;;;;;;;10.30;3.40;;;;;;;13.83;62.75;100624.23;124913;1102;104191;-80
2023/10/13 01:07:54;;;;;;;11.57;3.33;;;;;;;13.80;63.31;100626.80;124918;1102;104172;-79
2023/10/13 01:10:27;;;;;;;8.27;3.13;;;;;;;13.80;62.68;100632.95;124920;1102;102000;-79
2023/10/13 01:12:56;;;;;;;12.40;3.47;;;;;;;13.80;62.89;100629.43;124904;1102;102284;-80
2023/10/13 01:15:29;;;;;;;10.63;3.30;;;;;;;13.78;63.24;100621.48;124916;1102;101856;-79
2023/10/13 01:18:11;;;;;;;9.58;3.65;;;;;;;13.79;63.14;100622.36;124894;1102;104127;-79
2023/10/13 01:20:45;;;;;;;7.80;3.20;;;;;;;13.79;63.57;100622.36;124857;1102;102229;-79
2023/10/13 01:23:18;;;;;;;;;;;;;;;13.77;62.92;100624.95;124967;1102;104354;-79
2023/10/13 01:25:48;;;;;;;7.73;3.00;;;;;;;13.79;62.94;100630.27;124856;1102;104239;-79
2023/10/13 01:28:17;;;;;;;8.73;2.80;;;;;;;13.80;63.13;100616.24;124859;1102;104329;-79
2023/10/13 01:30:49;;;;;;;9.07;2.93;;;;;;;13.78;63.48;100624.11;124793;1102;103264;-79
2023/10/13 01:33:26;;;;;;;11.77;2.90;;;;;;;13.78;63.28;100617.95;124908;1102;104840;-79
2023/10/13 01:35:56;;;;;;;12.10;3.13;;;;;;;13.79;63.42;100612.72;124943;1102;104214;-79
2023/10/13 01:38:28;;;;;;;9.10;2.90;;;;;;;13.76;63.39;100606.46;124996;1102;104246;-79
2023/10/13 01:40:58;;;;;;;7.70;2.77;;;;;;;13.74;63.35;100609.05;124877;1102;104205;-79
2023/10/13 01:43:27;;;;;;;8.27;3.13;;;;;;;13.76;63.60;100611.73;124898;1102;101985;-80
2023/10/13 01:45:56;;;;;;;9.60;2.90;;;;;;;13.78;63.52;100612.69;124923;1102;104188;-80
2023/10/13 01:48:25;;;;;;;5.57;2.47;;;;;;;13.78;63.43;100607.41;124887;1102;104173;-79
2023/10/13 01:50:59;;;;;;;13.63;3.50;;;;;;;13.77;63.82;100610.89;124840;1102;102136;-79
2023/10/13 01:53:28;;;;;;;10.23;2.70;;;;;;;13.75;63.83;100613.49;124924;1102;104332;-79
2023/10/13 01:55:58;;;;;;;9.90;3.33;;;;;;;13.74;64.24;100624.00;124895;1102;102176;-79
2023/10/13 01:58:28;;;;;;;9.67;2.93;;;;;;;13.72;64.56;100617.81;124881;1102;104149;-80
2023/10/13 02:00:59;;;;;;;11.23;2.93;;;;;;;13.72;64.05;100625.72;124886;1102;104256;-80
2023/10/13 02:03:29;;;;;;;10.37;3.17;;;;;;;13.71;64.15;100626.56;125016;1100;102183;-80
2023/10/13 02:06:04;;;;;;;12.27;3.27;;;;;;;13.71;64.83;100629.20;125006;1102;102303;-79
2023/10/13 02:08:39;;;;;;;8.70;3.00;;;;;;;13.72;64.48;100633.63;124926;1102;104290;-79
2023/10/13 02:11:09;;;;;;;13.07;3.33;;;;;;;13.73;64.33;100638.03;125117;1102;102768;-80
2023/10/13 02:13:48;;;;;;;7.83;3.13;;;;;;;13.74;64.61;100642.46;125143;1102;102038;-79
2023/10/13 02:16:21;;;;;;;13.07;3.10;;;;;;;13.74;64.61;100642.46;125156;1102;104201;-79
2023/10/13 02:18:51;;;;;;;19.27;4.50;;;;;;;13.74;64.98;100638.06;124928;1102;101830;-79
2023/10/13 02:21:20;;;;;;;20.10;4.40;;;;;;;13.73;64.77;100632.75;124911;1102;104226;-79
2023/10/13 02:23:59;;;;;;;13.20;3.40;;;;;;;13.74;64.66;100645.98;125053;1101;104261;-79
2023/10/13 02:26:30;;;;;;;11.47;4.27;;;;;;;13.74;64.67;100642.46;125131;1102;102281;-79
2023/10/13 02:29:03;;;;;;;12.17;3.60;;;;;;;13.72;65.11;100639.78;125063;1102;102032;-79
2023/10/13 02:31:31;;;;;;;11.17;3.40;;;;;;;13.71;65.22;100650.30;125111;1102;102006;-79
2023/10/13 02:34:01;;;;;;;10.90;3.13;;;;;;;13.69;65.04;100652.02;125103;1101;104642;-79
2023/10/13 02:36:36;;;;;;;8.97;2.93;;;;;;;13.65;65.42;100662.48;124950;1102;104300;-81
2023/10/13 02:39:07;;;;;;;14.83;3.40;;;;;;;13.60;64.58;100658.84;124949;1102;104238;-80
2023/10/13 02:41:37;;;;;;;12.77;3.33;;;;;;;13.60;64.79;100658.84;124911;1102;101830;-80
2023/10/13 02:44:07;;;;;;;14.30;3.37;;;;;;;13.57;65.59;100657.84;124931;1102;104191;-80
2023/10/13 02:46:39;;;;;;;8.97;3.30;;;;;;;13.46;65.31;100662.84;124969;1102;104181;-80
2023/10/13 02:49:10;;;;;;;10.67;3.30;;;;;;;13.33;65.36;100648.45;124874;1102;102064;-80
2023/10/13 02:51:41;;;;;;;10.30;3.43;;;;;;;13.26;65.65;100646.45;124844;1101;104188;-80
2023/10/13 02:54:11;;;;;;;8.43;3.43;;;;;;;13.18;65.40;100642.72;124905;1102;104198;-80
2023/10/13 02:56:48;;;;;;;11.07;3.70;;;;;;;13.07;65.44;100643.34;124896;1102;102028;-80
2023/10/13 02:59:19;;;;;;;8.30;3.70;;;;;;;13.00;65.36;100640.50;124929;1102;104192;-80
2023/10/13 03:01:52;;;;;;;7.37;3.30;;;;;;;12.92;65.50;100649.06;124855;1101;104069;-79
2023/10/13 03:04:25;;;;;;;9.43;3.67;;;;;;;12.89;65.46;100650.72;125082;1102;101958;-79
2023/10/13 03:06:53;;;;;;;;;;;;;;;12.80;65.08;100653.97;124985;1100;104269;-80
2023/10/13 03:09:22;;;;;;;12.63;5.13;;;;;;;12.76;65.98;100653.00;124909;1102;102054;-79
2023/10/13 03:11:51;;;;;;;15.30;5.17;;;;;;;12.70;65.72;100651.91;124896;1102;104166;-79
2023/10/13 03:14:26;;;;;;;13.53;5.57;;;;;;;12.70;66.39;100644.00;124909;1102;102073;-80
2023/10/13 03:17:02;;;;;;;13.30;5.43;;;;;;;12.73;66.17;100647.64;124904;1102;104208;-79
2023/10/13 03:19:34;;;;;;;15.17;5.57;;;;;;;12.67;66.05;100651.81;124919;1102;104114;-80
2023/10/13 03:22:09;;;;;;;13.70;5.33;;;;;;;12.61;66.23;100646.40;124932;1102;104188;-80
2023/10/13 03:24:44;;;;;;;18.30;5.77;;;;;;;12.53;66.37;100644.42;124870;1102;102042;-81
2023/10/13 03:27:16;;;;;;;12.27;5.27;;;;;;;12.44;66.88;100649.40;124868;1102;104085;-81
2023/10/13 03:29:47;;;;;;;15.00;5.80;;;;;;;12.37;66.54;100647.42;124969;1102;102681;-81
2023/10/13 03:32:17;;;;;;;12.40;5.67;;;;;;;12.30;66.95;100655.98;125121;1102;101997;-81
2023/10/13 03:34:52;;;;;;;20.30;5.43;;;;;;;12.28;67.25;100658.56;124936;1102;104659;-81
2023/10/13 03:37:37;;;;;;;11.93;4.77;;;;;;;12.27;66.99;100651.51;124902;1102;102463;-81
2023/10/13 03:40:34;;;;;;;15.13;5.23;;;;;;;12.30;67.47;100661.25;124811;1102;104432;-81
2023/10/13 03:43:04;;;;;;;13.90;5.30;;;;;;;12.25;67.14;100658.47;124896;1102;101842;-82
2023/10/13 03:45:38;;;;;;;14.60;5.13;;;;;;;12.22;67.63;100672.41;124823;1102;101865;-80
2023/10/13 03:48:20;;;;;;;13.57;5.37;;;;;;;12.16;67.74;100676.59;124958;1102;104175;-82
2023/10/13 03:51:01;;;;;;;15.33;4.90;;;;;;;12.10;67.62;100679.03;124925;1102;102019;-82
2023/10/13 03:53:33;;;;;;;17.33;6.03;;;;;;;12.03;67.39;100683.20;124932;1102;102260;-82
2023/10/13 03:56:12;;;;;;;17.77;5.63;;;;;;;11.98;67.94;100683.05;124960;1102;102173;-81
2023/10/13 03:58:42;;;;;;;16.07;5.50;;;;;;;11.98;68.15;100695.28;124974;1101;104172;-80
2023/10/13 04:01:12;;;;;;;17.37;5.43;;;;;;;11.98;67.92;100684.77;124962;1102;102262;-81
2023/10/13 04:03:56;;;;;;;16.73;5.30;;;;;;;11.99;67.80;100679.55;124952;1102;104162;-81
2023/10/13 04:06:48;;;;;;;16.35;5.03;;;;;;;11.99;68.30;100676.05;124819;1102;104108;-81
2023/10/13 04:13:10;;;;;;;14.30;5.33;;;;;;;12.04;68.42;100690.23;125154;1102;104174;-80
2023/10/13 04:15:18;;;;;;;12.97;5.00;;;;;;;12.07;68.47;100684.19;125052;1102;104169;-81
2023/10/13 04:17:48;;;;;;;12.50;5.20;;;;;;;12.11;68.33;100688.72;124846;1101;104153;-78
2023/10/13 04:23:26;;;;;;;16.00;5.87;;;;;;;12.18;68.13;100701.20;124642;1102;104176;-78
2023/10/13 04:26:21;;;;;;;18.33;6.40;;;;;;;12.18;68.50;100699.45;124752;1102;102228;-77
2023/10/13 04:28:53;;;;;;;22.33;5.83;;;;;;;12.21;68.38;100699.55;124793;1102;102236;-78
2023/10/13 04:31:46;;;;;;;18.43;7.03;;;;;;;12.25;68.18;100697.94;124878;1102;101903;-78
2023/10/13 04:34:27;;;;;;;20.73;6.63;;;;;;;12.24;68.28;100698.77;124908;1102;104211;-78
2023/10/13 04:37:21;;;;;;;19.63;7.53;;;;;;;12.23;68.22;100703.15;125985;1100;102227;-78
2023/10/13 04:39:50;;;;;;;18.40;6.73;;;;;;;12.22;68.43;100703.10;125145;1102;102374;-78
2023/10/13 04:42:39;;;;;;;17.97;7.03;;;;;;;12.19;68.40;100706.52;125093;1101;101864;-77
2023/10/13 04:45:38;;;;;;;16.27;7.07;;;;;;;12.21;68.49;100709.20;124854;1102;117816;-80
2023/10/13 04:48:28;;;;;;;20.63;7.20;;;;;;;12.20;68.64;100712.66;124956;1102;104169;-80
2023/10/13 04:54:04;;;;;;;21.03;7.03;;;;;;;12.27;68.24;100724.30;125001;1102;104335;-83
2023/10/13 05:05:21;;;;;;;19.77;6.80;;;;;;;12.26;68.52;100740.91;124908;1102;104281;-79
2023/10/13 05:44:56;;;;;;;20.03;7.40;;;;;;;12.70;68.69;100800.27;125237;1102;101974;-80
2023/10/13 05:50:28;;;;;;;18.67;7.17;;;;;;;12.75;68.76;100811.82;125308;1099;104210;-76
2023/10/13 06:29:54;;;;;;;17.50;6.70;;;;;;;13.46;68.37;100786.73;125862;1099;102068;-84
2023/10/13 06:32:25;;;;;;;25.53;8.03;;;;;;;13.57;68.96;100787.95;126581;1098;101864;-81
2023/10/13 06:34:57;;;;;;;23.10;7.20;;;;;;;13.69;68.50;100824.30;126537;1098;104262;-81
2023/10/13 06:37:30;;;;;;;22.93;7.03;;;;;;;13.76;68.80;100827.98;125489;1099;101933;-84
2023/10/13 06:40:06;;;;;;;18.47;6.87;;;;;;;13.77;68.44;100819.24;126653;1099;102057;-78
2023/10/13 06:42:42;;;;;;;21.83;7.13;;;;;;;13.86;67.81;100843.23;126802;1098;101829;-86
2023/10/13 06:48:59;;;;;;;20.17;7.27;;;;;;;14.02;68.53;100833.98;125307;1099;101914;-79
2023/10/13 06:51:35;;;;;;;19.67;6.93;;;;;;;14.11;68.40;100847.43;125371;1099;104290;-82
2023/10/13 06:54:19;;;;;;;22.17;7.57;;;;;;;14.22;68.55;100841.55;127346;1098;101766;-81
2023/10/13 06:56:52;;;;;;;21.60;8.50;;;;;;;14.28;68.13;100845.23;126690;1098;101758;-85
2023/10/13 06:59:26;;;;;;;20.53;8.33;;;;;;;14.35;68.60;100846.28;125656;1099;102295;-80
2023/10/13 07:02:03;;;;;;;22.07;8.23;;;;;;;14.43;68.01;100857.04;124899;1099;104236;-78
2023/10/13 07:04:33;;;;;;;24.97;8.07;;;;;;;14.46;67.97;100862.40;126043;1098;103780;-83
2023/10/13 07:07:03;;;;;;;22.77;8.10;;;;;;;14.41;67.75;100864.92;126466;1098;104198;-82
2023/10/13 07:12:26;;;;;;;18.60;7.40;;;;;;;14.35;68.20;100859.48;125528;1099;101929;-80
2023/10/13 07:15:10;;;;;;;21.90;7.53;;;;;;;14.37;68.83;100866.59;125313;1099;102042;-77
2023/10/13 07:17:40;;;;;;;24.15;7.65;;;;;;;14.39;68.73;100858.72;125089;1099;103015;-75
2023/10/13 07:20:15;;;;;;;22.23;8.17;;;;;;;14.45;68.83;100850.95;124414;1099;104348;-75
2023/10/13 07:22:54;;;;;;;22.47;8.03;;;;;;;14.53;68.27;100845.87;124860;1099;102263;-75
2023/10/13 07:25:26;;;;;;;24.60;8.23;;;;;;;14.64;68.17;100840.89;125030;1099;104239;-76
2023/10/13 07:27:58;;;;;;;24.20;8.40;;;;;;;14.69;69.08;100850.72;125644;1099;103254;-78
2023/10/13 07:30:28;;;;;;;30.17;8.93;;;;;;;14.66;69.16;100855.93;126516;1098;104187;-78
2023/10/13 07:32:59;;;;;;;24.13;8.90;;;;;;;14.68;69.18;100850.69;124796;1099;102010;-75
2023/10/13 07:35:31;;;;;;;27.17;8.23;;;;;;;14.72;68.20;100849.88;126229;1098;101849;-76
2023/10/13 07:38:00;;;;;;;28.40;9.17;;;;;;;14.78;68.32;100849.15;125211;1099;104083;-76
2023/10/13 07:40:39;;;;;;;29.40;8.60;;;;;;;14.83;69.23;100840.45;125189;1099;101978;-75
2023/10/13 07:43:34;;;;;;;28.50;9.20;;;;;;;14.88;68.78;100865.27;126170;1098;102334;-77
2023/10/13 07:46:09;;;;;;;30.10;10.60;;;;;;;14.91;68.31;100861.78;126347;1098;104117;-78
2023/10/13 07:48:45;;;;;;;27.97;9.73;;;;;;;14.97;69.21;100859.28;125716;1099;102173;-77
2023/10/13 07:51:22;;;;;;;27.67;9.50;;;;;;;15.00;69.18;100875.21;125711;1099;104172;-77
2023/10/13 07:53:52;;;;;;;27.43;10.07;;;;;;;15.00;69.05;100874.33;124832;1099;101922;-76
2023/10/13 07:56:26;;;;;;;29.53;10.20;;;;;;;15.05;69.33;100873.59;124891;1099;101950;-77
2023/10/13 07:59:00;;;;;;;37.73;11.38;;;;;;;15.17;69.43;100875.61;125490;1099;102091;-80
2023/10/13 08:01:30;;;;;;;27.80;9.80;;;;;;;15.31;69.45;100875.03;126089;1099;101920;-78
2023/10/13 08:04:09;;;;;;;30.80;9.77;;;;;;;15.48;68.83;100878.94;125604;1099;102026;-79
2023/10/13 08:06:40;;;;;;;32.83;9.83;;;;;;;15.62;68.83;100876.59;125059;1098;104263;-76
2023/10/13 08:11:56;;;;;;;28.67;8.47;;;;;;;15.79;69.10;100875.21;124968;1099;104245;-78
2023/10/13 08:14:33;;;;;;;24.97;7.80;;;;;;;15.87;68.21;100877.13;126173;1099;101869;-75
2023/10/13 08:17:08;;;;;;;24.17;9.07;;;;;;;15.96;69.10;100877.31;126675;1098;102418;-76
2023/10/13 08:19:49;;;;;;;29.43;9.37;;;;;;;16.11;68.49;100879.35;126311;1099;102015;-78
2023/10/13 08:22:25;;;;;;;27.02;9.13;;;;;;;16.27;69.01;100875.26;125563;1098;104238;-77
2023/10/13 08:31:22;;;;;;;22.10;7.97;;;;;;;16.41;68.09;100873.74;125353;1099;109362;-76
2023/10/13 08:34:05;;;;;;;21.47;7.60;;;;;;;16.53;67.66;100887.20;126339;1097;101725;-74
2023/10/13 08:36:39;;;;;;;22.90;9.03;;;;;;;16.66;68.11;100887.42;125376;1099;104223;-76
2023/10/13 08:39:57;;;;;;;22.67;9.30;;;;;;;16.76;67.49;100891.11;124711;1102;104213;-77
2023/10/13 08:42:12;;;;;;;19.83;7.83;;;;;;;16.87;67.73;100889.55;124849;1099;102026;-77
2023/10/13 08:44:52;;;;;;;27.83;8.53;;;;;;;16.97;67.58;100882.62;125062;1099;104169;-76
2023/10/13 08:47:36;;;;;;;28.70;8.67;;;;;;;17.06;67.40;100898.67;124392;1099;101995;-76
2023/10/13 08:50:31;;;;;;;27.03;9.40;;;;;;;17.14;67.80;100889.09;124946;1099;101895;-75
2023/10/13 08:52:58;;;;;;;;;;;;;;;17.25;67.20;100892.80;126115;1098;104274;-76
2023/10/13 08:55:48;;;;;;;25.43;9.00;;;;;;;17.40;67.33;100884.14;124987;1099;104198;-75
2023/10/13 08:58:23;;;;;;;26.63;9.10;;;;;;;17.65;67.28;100883.59;125280;1099;104217;-77
2023/10/13 09:00:56;;;;;;;22.73;8.60;;;;;;;17.88;67.29;100889.19;124529;1099;104181;-75
2023/10/13 09:03:39;;;;;;;25.03;8.43;;;;;;;18.10;66.86;100891.23;125175;1099;101867;-76
2023/10/13 09:06:19;;;;;;;19.73;7.73;;;;;;;18.22;66.23;100890.48;124635;1099;104380;-78
2023/10/13 09:09:06;;;;;;;23.93;8.10;;;;;;;18.32;65.99;100897.70;124826;1099;104235;-80
2023/10/13 09:11:49;;;;;;;21.27;8.30;;;;;;;18.47;66.38;100896.05;125920;1099;104181;-78
2023/10/13 09:14:57;;;;;;;24.63;7.77;;;;;;;18.59;65.54;100892.60;126090;1099;102265;-79
2023/10/13 09:17:34;;;;;;;19.80;7.50;;;;;;;18.64;65.34;100905.06;125421;1099;102283;-75
2023/10/13 09:23:09;;;;;;;21.53;6.63;;;;;;;18.69;64.78;100895.36;125183;1099;104183;-76
2023/10/13 09:25:55;;;;;;;20.20;7.30;;;;;;;18.73;65.15;100896.30;125915;1099;101970;-78
2023/10/13 09:28:28;;;;;;;21.40;6.50;;;;;;;18.78;64.83;100894.56;126305;1099;102403;-79
2023/10/13 09:30:58;;;;;;;20.32;6.50;;;;;;;18.85;64.22;100890.20;125849;1099;104165;-80
2023/10/13 09:33:29;;;;;;;17.67;6.40;;;;;;;18.94;64.60;100887.61;126590;1098;101836;-80
2023/10/13 09:35:59;;;;;;;17.67;6.47;;;;;;;19.03;63.98;100897.45;125650;1099;102075;-79
2023/10/13 09:38:29;;;;;;;17.73;6.77;;;;;;;19.12;63.73;100896.59;126762;1098;104172;-81
2023/10/13 09:41:01;;;;;;;23.20;7.10;;;;;;;19.18;63.37;100891.32;126305;1099;101797;-83
2023/10/13 09:43:32;;;;;;;17.53;6.77;;;;;;;19.24;63.97;100888.70;125430;1099;104242;-80
2023/10/13 09:49:08;;;;;;;15.83;6.13;;;;;;;19.42;63.64;100887.05;124957;1099;104124;-79
2023/10/13 09:51:40;;;;;;;14.77;5.70;;;;;;;19.47;62.99;100882.64;125136;1099;102284;-80
2023/10/13 09:54:19;;;;;;;21.30;6.10;;;;;;;19.51;63.68;100882.66;125138;1099;101931;-80
2023/10/13 09:57:01;;;;;;;16.27;6.03;;;;;;;19.56;63.48;100878.24;125804;1099;104283;-84
2023/10/13 09:59:40;;;;;;;15.00;5.93;;;;;;;19.62;62.36;100877.39;126852;1098;102569;-81
2023/10/13 10:02:18;;;;;;;15.20;5.90;;;;;;;19.69;62.58;100873.85;125067;1099;104064;-84
2023/10/13 10:04:53;;;;;;;17.47;5.40;;;;;;;19.72;61.96;100868.55;125923;1099;101949;-84
2023/10/13 10:07:28;;;;;;;13.38;5.42;;;;;;;19.69;62.03;100873.85;125549;1099;102045;-81
2023/10/13 10:10:04;;;;;;;13.73;5.40;;;;;;;19.69;62.17;100870.31;125453;1099;101900;-81
2023/10/13 10:12:45;;;;;;;14.67;5.70;;;;;;;19.74;61.47;100877.45;125323;1099;104178;-80
2023/10/13 10:15:33;;;;;;;20.03;6.27;;;;;;;19.84;61.97;100864.20;125604;1099;102643;-79
2023/10/13 10:18:05;;;;;;;13.80;5.47;;;;;;;19.95;61.44;100869.56;126509;1098;102332;-76
2023/10/13 10:20:42;;;;;;;15.83;5.63;;;;;;;19.94;62.03;100863.33;125755;1099;101886;-79
2023/10/13 10:23:35;;;;;;;16.20;5.93;;;;;;;19.92;61.58;100873.98;125447;1102;102010;-82
2023/10/13 10:26:20;;;;;;;21.27;6.70;;;;;;;19.89;61.20;100865.09;125902;1099;104156;-81
2023/10/13 10:29:00;;;;;;;19.80;5.87;;;;;;;19.89;61.13;100875.75;125636;1099;104179;-85
2023/10/13 10:31:45;;;;;;;17.43;5.70;;;;;;;19.92;61.29;100860.66;126802;1098;104095;-82
2023/10/13 10:34:35;;;;;;;20.20;5.80;;;;;;;20.04;61.45;100859.81;126618;1098;101673;-79
2023/10/13 10:37:10;;;;;;;17.07;6.03;;;;;;;20.15;61.64;100856.27;125569;1099;104313;-83
2023/10/13 10:39:56;;;;;;;15.17;6.20;;;;;;;20.28;60.77;100858.95;126144;1099;104322;-79
2023/10/13 10:42:29;;;;;;;16.00;5.80;;;;;;;20.40;60.76;100854.55;126155;1098;104201;-79
2023/10/13 10:45:05;;;;;;;14.93;5.80;;;;;;;20.46;60.93;100847.44;125544;1099;104166;-79
2023/10/13 10:47:58;;;;;;;15.13;6.10;;;;;;;20.64;61.30;100853.66;126606;1099;104338;-81
2023/10/13 10:51:06;;;;;;;15.50;5.90;;;;;;;20.75;61.39;100843.91;127180;1099;102390;-80
2023/10/13 10:53:44;;;;;;;15.43;6.00;;;;;;;20.85;60.39;100836.80;125966;1099;101822;-78
2023/10/13 10:56:24;;;;;;;16.03;6.67;;;;;;;20.93;60.03;100832.34;125254;1099;104175;-77
2023/10/13 10:58:59;;;;;;;13.47;5.90;;;;;;;21.01;60.23;100834.99;125480;1099;101981;-85
2023/10/13 11:01:35;;;;;;;12.60;5.67;;;;;;;21.07;59.96;100834.98;126016;1099;104191;-79
2023/10/13 11:04:33;;;;;;;15.53;5.87;;;;;;;21.10;60.22;100824.30;125043;1098;118344;-78
2023/10/13 11:07:06;;;;;;;12.00;5.40;;;;;;;21.13;60.34;100834.97;124976;1099;101939;-78
2023/10/13 11:09:46;;;;;;;14.03;5.37;;;;;;;21.17;60.20;100815.37;126393;1098;104235;-77
2023/10/13 11:12:27;;;;;;;16.67;5.33;;;;;;;21.29;60.13;100818.91;125233;1099;102279;-76
2023/10/13 11:15:21;;;;;;;14.20;5.80;;;;;;;21.33;59.48;100820.66;126636;1098;102419;-81
2023/10/13 11:18:13;;;;;;;15.57;5.63;;;;;;;21.36;59.42;100818.89;126725;1098;104172;-80
2023/10/13 11:20:53;;;;;;;13.53;5.43;;;;;;;21.42;58.40;100817.95;125915;1099;104172;-78
2023/10/13 11:23:25;;;;;;;12.03;5.23;;;;;;;21.46;58.34;100817.06;125936;1099;104645;-78
2023/10/13 11:26:02;;;;;;;13.87;5.47;;;;;;;21.51;58.95;100814.41;126744;1098;102220;-83
2023/10/13 11:28:50;;;;;;;14.20;5.20;;;;;;;21.53;58.26;100832.20;126469;1099;101706;-82
2023/10/13 11:31:21;;;;;;;14.70;5.70;;;;;;;;;;127084;1098;102012;-78
2023/10/13 11:34:01;;;;;;;13.70;5.80;;;;;;;21.54;57.97;100819.73;126009;1099;104384;-81
2023/10/13 11:36:47;;;;;;;45.70;11.70;;;;;;;21.50;58.15;100820.63;125915;1099;101981;-84
2023/10/13 11:39:23;;;;;;;21.53;6.80;;;;;;;21.43;56.98;100814.41;126288;1099;104111;-83
2023/10/13 11:42:17;;;;;;;22.43;6.03;;;;;;;21.35;57.25;100821.56;126079;1099;101775;-82
2023/10/13 11:44:48;;;;;;;15.70;5.53;;;;;;;21.29;56.62;100818.91;125578;1099;104163;-80
2023/10/13 11:50:32;;;;;;;18.67;5.53;;;;;;;21.25;57.29;100814.47;125869;1098;101911;-82
2023/10/13 11:53:08;;;;;;;16.07;5.70;;;;;;;21.25;57.31;100811.80;125704;1099;104257;-81
2023/10/13 11:55:45;;;;;;;11.67;5.53;;;;;;;21.23;56.70;100805.59;126275;1099;101807;-81
2023/10/13 11:58:17;;;;;;;15.40;5.40;;;;;;;21.24;57.34;100807.34;126832;1098;101958;-79
2023/10/13 12:06:35;;;;;;;13.80;5.70;;;;;;;21.23;57.12;100800.25;125639;1099;109923;-81
2023/10/13 12:09:17;;;;;;;14.80;5.73;;;;;;;21.22;56.07;100801.13;125484;1099;104159;-75
2023/10/13 12:11:50;;;;;;;11.60;5.07;;;;;;;21.22;56.62;100806.47;124930;1099;102510;-83
2023/10/13 12:14:21;;;;;;;12.77;5.50;;;;;;;21.21;56.72;100797.59;125398;1099;104303;-81
2023/10/13 12:16:55;;;;;;;16.23;5.47;;;;;;;21.21;55.92;100800.26;125708;1099;102354;-77
2023/10/13 12:19:26;;;;;;;12.27;5.30;;;;;;;21.18;56.59;100798.47;125551;1099;104265;-82
2023/10/13 12:22:05;;;;;;;14.60;5.33;;;;;;;21.17;56.18;100791.35;125537;1099;104166;-82
2023/10/13 12:24:40;;;;;;;14.53;5.57;;;;;;;21.16;56.18;100797.60;125323;1099;104176;-76
2023/10/13 12:27:19;;;;;;;14.20;5.60;;;;;;;21.16;56.30;100800.27;125032;1098;104191;-79
2023/10/13 12:29:51;;;;;;;25.50;7.47;;;;;;;21.16;56.47;100800.27;125320;1099;104207;-81
2023/10/13 12:32:24;;;;;;;31.13;7.27;;;;;;;21.18;56.60;100787.80;125236;1099;104156;-81
2023/10/13 12:35:00;;;;;;;42.43;8.00;;;;;;;21.22;55.91;100798.47;125100;1099;104235;-80
2023/10/13 12:37:50;;;;;;;21.97;6.13;;;;;;;21.22;55.76;100802.01;125279;1099;102418;-78
2023/10/13 12:49:14;;;;;;;17.57;5.33;;;;;;;21.40;55.83;100787.72;124948;1099;101797;-77
2023/10/13 12:51:53;;;;;;;15.27;5.53;;;;;;;21.52;55.00;100803.72;125464;1099;104274;-82
2023/10/13 12:54:35;;;;;;;13.97;5.20;;;;;;;21.62;55.14;100799.22;126454;1098;102215;-84
2023/10/13 12:57:09;;;;;;;12.33;4.90;;;;;;;21.72;55.61;100802.72;125125;1102;102076;-87
2023/10/13 12:59:41;;;;;;;13.97;5.20;;;;;;;21.80;55.42;100792.90;126205;1099;101806;-80
2023/10/13 13:02:15;;;;;;;16.93;5.42;;;;;;;21.80;54.57;100795.57;125570;1099;101865;-78
2023/10/13 13:04:53;;;;;;;16.20;5.50;;;;;;;21.83;55.22;100798.22;124919;1099;102532;-80
2023/10/13 13:07:29;;;;;;;13.53;5.00;;;;;;;21.81;54.77;100808.00;126570;1098;102274;-87
2023/10/13 13:10:02;;;;;;;15.57;5.60;;;;;;;21.76;54.42;100809.83;125689;1099;101909;-82
2023/10/13 13:12:32;;;;;;;11.67;5.47;;;;;;;21.69;54.02;100802.73;126476;1099;104179;-84
2023/10/13 13:15:08;;;;;;;17.73;5.33;;;;;;;21.63;54.17;100811.68;125596;1099;101845;-83
2023/10/13 13:17:40;;;;;;;14.27;5.30;;;;;;;21.60;54.39;100816.13;126113;1099;117877;-83
2023/10/13 13:20:11;;;;;;;14.27;5.20;;;;;;;21.54;53.68;100814.39;126026;1099;103276;-82
2023/10/13 13:22:40;;;;;;;13.57;5.40;;;;;;;21.59;54.32;100807.23;125336;1099;102029;-79
2023/10/13 13:25:11;;;;;;;40.80;8.43;;;;;;;21.61;53.57;100800.09;125402;1099;104781;-78
2023/10/13 13:27:41;;;;;;;29.37;7.63;;;;;;;21.65;54.05;100801.87;125535;1097;102224;-79
2023/10/13 13:30:14;;;;;;;17.83;5.90;;;;;;;21.70;54.20;100807.19;125693;1099;104307;-84
2023/10/13 13:32:45;;;;;;;26.30;7.40;;;;;;;21.70;54.13;100810.73;126386;1099;104355;-78
2023/10/13 13:35:18;;;;;;;22.07;6.47;;;;;;;21.67;54.16;100813.42;125341;1099;104207;-83
2023/10/13 13:37:49;;;;;;;24.23;7.10;;;;;;;21.64;54.32;100812.56;125350;1099;104297;-77
2023/10/13 13:40:22;;;;;;;25.40;7.03;;;;;;;21.57;53.47;100813.50;125187;1099;104316;-83
2023/10/13 13:42:50;;;;;;;28.10;7.30;;;;;;;21.52;53.94;100816.19;125548;1099;101992;-80
2023/10/13 13:45:27;;;;;;;15.05;5.50;;;;;;;21.50;53.51;100817.95;125559;1099;101981;-82
2023/10/13 13:48:07;;;;;;;19.23;6.53;;;;;;;21.46;53.52;100817.06;125638;1099;104319;-82
2023/10/13 13:50:52;;;;;;;14.15;6.10;;;;;;;21.41;54.16;100818.88;125640;1099;101890;-80
2023/10/13 13:53:27;;;;;;;17.73;5.53;;;;;;;21.37;53.21;100817.09;125760;1099;102077;-81
2023/10/13 13:56:01;;;;;;;13.63;5.97;;;;;;;21.33;53.41;100817.98;125127;1099;102420;-79
2023/10/13 13:58:31;;;;;;;13.53;5.23;;;;;;;21.28;53.24;100817.13;125510;1099;107905;-84
2023/10/13 14:01:11;;;;;;;13.83;5.60;;;;;;;21.24;53.84;100818.92;125643;1099;101912;-82